Accueil
METAR-TAF:

METAR-TAF

Aéroports :

Marion, Caroline du Sud, États-Unis

latitude: 34-10-52N, longitude: 079-20-05W, altitude: 28 m

Observation

Le bulletin a été fait il y a 18 minutes, à 22:55 UTC
Vent 3 kt de nord-ouest
Température 10°C
Humidité 66%
Pression 1022 hPa
Visibilité: 16.1 km
Ciel clair

METAR: KMAO 202255Z AUTO 32003KT 10SM CLR 10/04 A3017 RMK AO2

Heure: 18:13 (23:13 UTC)


TAF: absent

Observations et prévisions météorologiques de plus de 4000 aéroports (messages METAR et TAF).

Les stations disponibles sont représentées par des disques jaunes et rouges sur la carte.

Passer la souris dessus pour voir le nom de la station.

Cliquer dessus pour voir les observations et prévisions météorologiques.

Pour changer de carte: cliquez sur les boutons verts avec une croix noire pour zoomer, sur le bouton vert avec un tiret pour effectuer un zoom arrière, ou sur les flèches vertes pour les cartes adjacentes.


METAR-TAF: